sensor_id;sensor_type;location;lat;lon;timestamp;P1;durP1;ratioP1;P2;durP2;ratioP2
55212;SDS011;41083;52.932;6.674;2023-02-15T00:01:08;7.00;;;3.72;;
55212;SDS011;41083;52.932;6.674;2023-02-15T00:03:35;8.43;;;4.78;;
55212;SDS011;41083;52.932;6.674;2023-02-15T00:06:01;11.05;;;5.10;;
55212;SDS011;41083;52.932;6.674;2023-02-15T00:08:27;7.65;;;4.20;;
55212;SDS011;41083;52.932;6.674;2023-02-15T00:10:52;7.32;;;3.70;;
55212;SDS011;41083;52.932;6.674;2023-02-15T00:13:18;9.27;;;4.45;;
55212;SDS011;41083;52.932;6.674;2023-02-15T00:15:44;8.15;;;4.03;;
55212;SDS011;41083;52.932;6.674;2023-02-15T00:18:09;8.18;;;3.95;;
55212;SDS011;41083;52.932;6.674;2023-02-15T00:20:35;5.78;;;3.65;;
55212;SDS011;41083;52.932;6.674;2023-02-15T00:23:00;14.48;;;5.03;;
55212;SDS011;41083;52.932;6.674;2023-02-15T00:25:26;8.80;;;4.63;;
55212;SDS011;41083;52.932;6.674;2023-02-15T00:27:52;6.70;;;4.25;;
55212;SDS011;41083;52.932;6.674;2023-02-15T00:30:17;5.95;;;3.47;;
55212;SDS011;41083;52.932;6.674;2023-02-15T00:32:43;9.75;;;4.47;;
55212;SDS011;41083;52.932;6.674;2023-02-15T00:35:09;9.15;;;5.00;;
55212;SDS011;41083;52.932;6.674;2023-02-15T00:37:34;10.60;;;4.93;;
55212;SDS011;41083;52.932;6.674;2023-02-15T00:40:00;14.85;;;6.20;;
55212;SDS011;41083;52.932;6.674;2023-02-15T00:42:26;9.82;;;4.50;;
55212;SDS011;41083;52.932;6.674;2023-02-15T00:44:52;9.30;;;4.78;;
55212;SDS011;41083;52.932;6.674;2023-02-15T00:47:17;8.05;;;4.50;;
55212;SDS011;41083;52.932;6.674;2023-02-15T00:49:43;13.20;;;6.53;;
55212;SDS011;41083;52.932;6.674;2023-02-15T00:52:08;12.27;;;5.15;;
55212;SDS011;41083;52.932;6.674;2023-02-15T00:54:34;10.00;;;6.00;;
55212;SDS011;41083;52.932;6.674;2023-02-15T00:57:00;11.63;;;6.05;;
55212;SDS011;41083;52.932;6.674;2023-02-15T00:59:26;9.07;;;5.93;;
55212;SDS011;41083;52.932;6.674;2023-02-15T01:01:51;7.47;;;4.93;;
55212;SDS011;41083;52.932;6.674;2023-02-15T01:04:17;13.52;;;5.68;;
55212;SDS011;41083;52.932;6.674;2023-02-15T01:06:42;12.23;;;6.50;;
55212;SDS011;41083;52.932;6.674;2023-02-15T01:09:08;13.27;;;5.95;;
55212;SDS011;41083;52.932;6.674;2023-02-15T01:11:34;9.73;;;5.47;;
55212;SDS011;41083;52.932;6.674;2023-02-15T01:13:59;11.02;;;5.40;;
55212;SDS011;41083;52.932;6.674;2023-02-15T01:16:26;14.05;;;6.47;;
55212;SDS011;41083;52.932;6.674;2023-02-15T01:18:53;11.05;;;5.85;;
55212;SDS011;41083;52.932;6.674;2023-02-15T01:21:20;9.45;;;5.40;;
55212;SDS011;41083;52.932;6.674;2023-02-15T01:23:47;11.07;;;5.47;;
55212;SDS011;41083;52.932;6.674;2023-02-15T01:26:13;10.75;;;5.55;;
55212;SDS011;41083;52.932;6.674;2023-02-15T01:28:39;8.57;;;4.97;;
55212;SDS011;41083;52.932;6.674;2023-02-15T01:31:09;11.85;;;5.65;;
55212;SDS011;41083;52.932;6.674;2023-02-15T01:33:36;11.90;;;5.95;;
55212;SDS011;41083;52.932;6.674;2023-02-15T01:36:03;10.00;;;4.82;;
55212;SDS011;41083;52.932;6.674;2023-02-15T01:38:29;10.90;;;5.35;;
55212;SDS011;41083;52.932;6.674;2023-02-15T01:40:55;12.00;;;5.15;;
55212;SDS011;41083;52.932;6.674;2023-02-15T01:43:41;11.18;;;6.25;;
55212;SDS011;41083;52.932;6.674;2023-02-15T01:46:08;8.90;;;4.68;;
55212;SDS011;41083;52.932;6.674;2023-02-15T01:48:35;9.00;;;4.45;;
55212;SDS011;41083;52.932;6.674;2023-02-15T01:51:08;17.70;;;4.68;;
55212;SDS011;41083;52.932;6.674;2023-02-15T01:53:35;8.63;;;4.45;;
55212;SDS011;41083;52.932;6.674;2023-02-15T01:56:06;9.20;;;4.18;;
55212;SDS011;41083;52.932;6.674;2023-02-15T01:58:42;8.70;;;4.35;;
55212;SDS011;41083;52.932;6.674;2023-02-15T02:01:08;7.60;;;3.90;;
55212;SDS011;41083;52.932;6.674;2023-02-15T02:03:56;7.45;;;3.90;;
55212;SDS011;41083;52.932;6.674;2023-02-15T02:06:29;7.80;;;3.88;;
55212;SDS011;41083;52.932;6.674;2023-02-15T02:08:55;7.68;;;4.95;;
55212;SDS011;41083;52.932;6.674;2023-02-15T02:11:21;10.30;;;5.60;;
55212;SDS011;41083;52.932;6.674;2023-02-15T02:13:47;12.30;;;5.50;;
55212;SDS011;41083;52.932;6.674;2023-02-15T02:16:29;9.40;;;4.35;;
55212;SDS011;41083;52.932;6.674;2023-02-15T02:19:46;9.13;;;5.30;;
55212;SDS011;41083;52.932;6.674;2023-02-15T02:22:56;8.80;;;5.07;;
55212;SDS011;41083;52.932;6.674;2023-02-15T02:26:03;8.43;;;4.95;;
55212;SDS011;41083;52.932;6.674;2023-02-15T02:34:23;7.03;;;3.72;;
55212;SDS011;41083;52.932;6.674;2023-02-15T02:36:56;9.05;;;5.28;;
55212;SDS011;41083;52.932;6.674;2023-02-15T02:39:49;7.15;;;4.57;;
55212;SDS011;41083;52.932;6.674;2023-02-15T02:45:48;12.82;;;5.65;;
55212;SDS011;41083;52.932;6.674;2023-02-15T02:48:03;9.50;;;5.55;;
55212;SDS011;41083;52.932;6.674;2023-02-15T02:50:40;8.80;;;5.90;;
55212;SDS011;41083;52.932;6.674;2023-02-15T02:53:06;13.55;;;6.38;;
55212;SDS011;41083;52.932;6.674;2023-02-15T02:58:25;12.60;;;7.47;;
55212;SDS011;41083;52.932;6.674;2023-02-15T03:00:55;11.20;;;6.50;;
55212;SDS011;41083;52.932;6.674;2023-02-15T03:03:40;16.52;;;6.57;;
55212;SDS011;41083;52.932;6.674;2023-02-15T03:06:33;15.27;;;7.40;;
55212;SDS011;41083;52.932;6.674;2023-02-15T03:09:14;15.38;;;7.20;;
55212;SDS011;41083;52.932;6.674;2023-02-15T03:11:46;14.02;;;6.53;;
55212;SDS011;41083;52.932;6.674;2023-02-15T03:14:14;14.35;;;7.72;;
55212;SDS011;41083;52.932;6.674;2023-02-15T03:16:40;11.32;;;6.18;;
55212;SDS011;41083;52.932;6.674;2023-02-15T03:19:09;10.00;;;5.15;;
55212;SDS011;41083;52.932;6.674;2023-02-15T03:21:44;11.13;;;5.13;;
55212;SDS011;41083;52.932;6.674;2023-02-15T03:24:24;12.32;;;5.72;;
55212;SDS011;41083;52.932;6.674;2023-02-15T03:26:54;10.95;;;6.30;;
55212;SDS011;41083;52.932;6.674;2023-02-15T03:29:21;12.20;;;5.57;;
55212;SDS011;41083;52.932;6.674;2023-02-15T03:31:50;9.02;;;5.60;;
55212;SDS011;41083;52.932;6.674;2023-02-15T03:34:20;12.50;;;6.18;;
55212;SDS011;41083;52.932;6.674;2023-02-15T03:36:54;9.63;;;5.50;;
55212;SDS011;41083;52.932;6.674;2023-02-15T03:42:10;9.02;;;4.93;;
55212;SDS011;41083;52.932;6.674;2023-02-15T03:44:51;10.48;;;5.50;;
55212;SDS011;41083;52.932;6.674;2023-02-15T03:47:25;12.55;;;5.85;;
55212;SDS011;41083;52.932;6.674;2023-02-15T03:50:01;10.07;;;5.43;;
55212;SDS011;41083;52.932;6.674;2023-02-15T03:52:56;12.48;;;7.07;;
55212;SDS011;41083;52.932;6.674;2023-02-15T03:55:25;9.82;;;5.43;;
55212;SDS011;41083;52.932;6.674;2023-02-15T03:57:51;14.23;;;6.85;;
55212;SDS011;41083;52.932;6.674;2023-02-15T04:00:37;9.57;;;5.78;;
55212;SDS011;41083;52.932;6.674;2023-02-15T04:03:32;12.30;;;5.85;;
55212;SDS011;41083;52.932;6.674;2023-02-15T04:06:04;11.30;;;6.35;;
55212;SDS011;41083;52.932;6.674;2023-02-15T04:08:30;14.80;;;7.05;;
55212;SDS011;41083;52.932;6.674;2023-02-15T04:11:14;13.73;;;6.07;;
55212;SDS011;41083;52.932;6.674;2023-02-15T04:13:40;13.27;;;6.57;;
55212;SDS011;41083;52.932;6.674;2023-02-15T04:16:05;10.07;;;5.68;;
55212;SDS011;41083;52.932;6.674;2023-02-15T04:18:35;14.65;;;6.93;;
55212;SDS011;41083;52.932;6.674;2023-02-15T04:21:25;10.20;;;5.72;;
55212;SDS011;41083;52.932;6.674;2023-02-15T04:26:55;7.15;;;4.45;;
55212;SDS011;41083;52.932;6.674;2023-02-15T04:29:22;10.05;;;5.10;;
55212;SDS011;41083;52.932;6.674;2023-02-15T04:31:49;9.98;;;5.13;;
55212;SDS011;41083;52.932;6.674;2023-02-15T04:34:15;10.07;;;5.00;;
55212;SDS011;41083;52.932;6.674;2023-02-15T04:36:41;11.80;;;6.13;;
55212;SDS011;41083;52.932;6.674;2023-02-15T04:39:07;7.72;;;4.72;;
55212;SDS011;41083;52.932;6.674;2023-02-15T04:41:33;9.32;;;4.93;;
55212;SDS011;41083;52.932;6.674;2023-02-15T04:44:00;8.82;;;5.13;;
55212;SDS011;41083;52.932;6.674;2023-02-15T04:46:26;8.65;;;4.60;;
55212;SDS011;41083;52.932;6.674;2023-02-15T04:48:52;8.18;;;4.70;;
55212;SDS011;41083;52.932;6.674;2023-02-15T04:51:18;11.00;;;6.65;;
55212;SDS011;41083;52.932;6.674;2023-02-15T04:53:44;12.02;;;6.80;;
55212;SDS011;41083;52.932;6.674;2023-02-15T04:56:10;12.07;;;6.30;;
55212;SDS011;41083;52.932;6.674;2023-02-15T04:58:35;9.20;;;6.13;;
55212;SDS011;41083;52.932;6.674;2023-02-15T05:01:01;9.18;;;5.35;;
55212;SDS011;41083;52.932;6.674;2023-02-15T05:03:27;11.55;;;7.00;;
55212;SDS011;41083;52.932;6.674;2023-02-15T05:05:53;9.82;;;5.95;;
55212;SDS011;41083;52.932;6.674;2023-02-15T05:08:18;13.02;;;6.55;;
55212;SDS011;41083;52.932;6.674;2023-02-15T05:10:44;11.88;;;6.00;;
55212;SDS011;41083;52.932;6.674;2023-02-15T05:13:09;10.25;;;6.07;;
55212;SDS011;41083;52.932;6.674;2023-02-15T05:15:35;9.68;;;5.65;;
55212;SDS011;41083;52.932;6.674;2023-02-15T05:18:00;8.68;;;5.18;;
55212;SDS011;41083;52.932;6.674;2023-02-15T05:20:26;14.30;;;6.65;;
55212;SDS011;41083;52.932;6.674;2023-02-15T05:22:55;12.25;;;6.50;;
55212;SDS011;41083;52.932;6.674;2023-02-15T05:25:21;10.88;;;6.10;;
55212;SDS011;41083;52.932;6.674;2023-02-15T05:28:07;12.55;;;6.20;;
55212;SDS011;41083;52.932;6.674;2023-02-15T05:30:47;10.85;;;5.93;;
55212;SDS011;41083;52.932;6.674;2023-02-15T05:33:14;11.73;;;6.38;;
55212;SDS011;41083;52.932;6.674;2023-02-15T05:35:40;13.98;;;6.30;;
55212;SDS011;41083;52.932;6.674;2023-02-15T05:38:06;15.90;;;6.90;;
55212;SDS011;41083;52.932;6.674;2023-02-15T05:40:31;9.63;;;6.22;;
55212;SDS011;41083;52.932;6.674;2023-02-15T05:42:57;15.85;;;7.93;;
55212;SDS011;41083;52.932;6.674;2023-02-15T05:45:23;12.55;;;6.72;;
55212;SDS011;41083;52.932;6.674;2023-02-15T05:47:48;11.75;;;6.30;;
55212;SDS011;41083;52.932;6.674;2023-02-15T05:50:14;10.95;;;6.15;;
55212;SDS011;41083;52.932;6.674;2023-02-15T05:52:40;12.07;;;7.00;;
55212;SDS011;41083;52.932;6.674;2023-02-15T05:55:06;11.98;;;6.28;;
55212;SDS011;41083;52.932;6.674;2023-02-15T05:57:33;12.30;;;6.97;;
55212;SDS011;41083;52.932;6.674;2023-02-15T06:00:00;13.27;;;6.45;;
55212;SDS011;41083;52.932;6.674;2023-02-15T06:02:29;11.65;;;6.28;;
55212;SDS011;41083;52.932;6.674;2023-02-15T06:04:59;10.35;;;6.57;;
55212;SDS011;41083;52.932;6.674;2023-02-15T06:07:25;12.13;;;6.60;;
55212;SDS011;41083;52.932;6.674;2023-02-15T06:09:50;12.55;;;6.47;;
55212;SDS011;41083;52.932;6.674;2023-02-15T06:12:16;15.68;;;7.22;;
55212;SDS011;41083;52.932;6.674;2023-02-15T06:14:42;11.43;;;5.82;;
55212;SDS011;41083;52.932;6.674;2023-02-15T06:17:07;11.73;;;6.93;;
55212;SDS011;41083;52.932;6.674;2023-02-15T06:19:33;10.60;;;5.57;;
55212;SDS011;41083;52.932;6.674;2023-02-15T06:21:58;13.45;;;7.28;;
55212;SDS011;41083;52.932;6.674;2023-02-15T06:24:24;10.70;;;6.90;;
55212;SDS011;41083;52.932;6.674;2023-02-15T06:26:49;16.52;;;7.93;;
55212;SDS011;41083;52.932;6.674;2023-02-15T06:29:15;14.18;;;7.70;;
55212;SDS011;41083;52.932;6.674;2023-02-15T06:31:41;10.45;;;6.53;;
55212;SDS011;41083;52.932;6.674;2023-02-15T06:34:06;11.65;;;5.90;;
55212;SDS011;41083;52.932;6.674;2023-02-15T06:36:32;11.38;;;6.68;;
55212;SDS011;41083;52.932;6.674;2023-02-15T06:38:58;14.93;;;7.38;;
55212;SDS011;41083;52.932;6.674;2023-02-15T06:41:24;12.20;;;6.15;;
55212;SDS011;41083;52.932;6.674;2023-02-15T06:43:50;10.80;;;5.97;;
55212;SDS011;41083;52.932;6.674;2023-02-15T06:46:16;11.38;;;6.72;;
55212;SDS011;41083;52.932;6.674;2023-02-15T06:48:41;13.40;;;6.95;;
55212;SDS011;41083;52.932;6.674;2023-02-15T06:51:07;13.63;;;5.82;;
55212;SDS011;41083;52.932;6.674;2023-02-15T06:53:33;10.20;;;6.32;;
55212;SDS011;41083;52.932;6.674;2023-02-15T06:56:02;12.98;;;6.22;;
55212;SDS011;41083;52.932;6.674;2023-02-15T06:58:31;14.00;;;6.63;;
55212;SDS011;41083;52.932;6.674;2023-02-15T07:00:57;13.57;;;7.75;;
55212;SDS011;41083;52.932;6.674;2023-02-15T07:03:23;16.00;;;6.70;;
55212;SDS011;41083;52.932;6.674;2023-02-15T07:05:49;13.32;;;6.57;;
55212;SDS011;41083;52.932;6.674;2023-02-15T07:08:19;11.85;;;6.57;;
55212;SDS011;41083;52.932;6.674;2023-02-15T07:10:45;13.00;;;6.15;;
55212;SDS011;41083;52.932;6.674;2023-02-15T07:13:11;11.15;;;6.20;;
55212;SDS011;41083;52.932;6.674;2023-02-15T07:15:36;10.75;;;6.72;;
55212;SDS011;41083;52.932;6.674;2023-02-15T07:18:02;14.90;;;6.93;;
55212;SDS011;41083;52.932;6.674;2023-02-15T07:20:28;13.43;;;6.25;;
55212;SDS011;41083;52.932;6.674;2023-02-15T07:22:54;15.45;;;7.05;;
55212;SDS011;41083;52.932;6.674;2023-02-15T07:25:20;14.40;;;6.68;;
55212;SDS011;41083;52.932;6.674;2023-02-15T07:27:45;8.80;;;5.60;;
55212;SDS011;41083;52.932;6.674;2023-02-15T07:30:12;11.18;;;6.20;;
55212;SDS011;41083;52.932;6.674;2023-02-15T07:32:39;11.48;;;6.43;;
55212;SDS011;41083;52.932;6.674;2023-02-15T07:35:25;12.75;;;6.85;;
55212;SDS011;41083;52.932;6.674;2023-02-15T07:37:51;12.82;;;6.68;;
55212;SDS011;41083;52.932;6.674;2023-02-15T07:40:18;13.95;;;7.28;;
55212;SDS011;41083;52.932;6.674;2023-02-15T07:42:43;15.65;;;7.05;;
55212;SDS011;41083;52.932;6.674;2023-02-15T07:45:09;11.40;;;5.28;;
55212;SDS011;41083;52.932;6.674;2023-02-15T07:47:35;8.68;;;5.50;;
55212;SDS011;41083;52.932;6.674;2023-02-15T07:50:01;14.48;;;7.10;;
55212;SDS011;41083;52.932;6.674;2023-02-15T07:52:27;10.75;;;6.05;;
55212;SDS011;41083;52.932;6.674;2023-02-15T07:54:52;11.32;;;6.03;;
55212;SDS011;41083;52.932;6.674;2023-02-15T07:57:18;10.77;;;6.00;;
55212;SDS011;41083;52.932;6.674;2023-02-15T07:59:43;13.18;;;6.38;;
55212;SDS011;41083;52.932;6.674;2023-02-15T08:02:10;12.98;;;6.25;;
55212;SDS011;41083;52.932;6.674;2023-02-15T08:04:36;16.33;;;7.80;;
55212;SDS011;41083;52.932;6.674;2023-02-15T08:07:01;12.00;;;6.93;;
55212;SDS011;41083;52.932;6.674;2023-02-15T08:09:27;16.48;;;7.07;;
55212;SDS011;41083;52.932;6.674;2023-02-15T08:11:52;13.00;;;7.22;;
55212;SDS011;41083;52.932;6.674;2023-02-15T08:14:19;13.00;;;7.60;;
55212;SDS011;41083;52.932;6.674;2023-02-15T08:16:54;16.42;;;7.47;;
55212;SDS011;41083;52.932;6.674;2023-02-15T08:19:24;14.52;;;5.95;;
55212;SDS011;41083;52.932;6.674;2023-02-15T08:21:55;17.20;;;8.00;;
55212;SDS011;41083;52.932;6.674;2023-02-15T08:24:26;14.70;;;7.05;;
55212;SDS011;41083;52.932;6.674;2023-02-15T08:26:55;12.75;;;6.03;;
55212;SDS011;41083;52.932;6.674;2023-02-15T08:29:25;17.42;;;6.68;;
55212;SDS011;41083;52.932;6.674;2023-02-15T08:31:53;13.93;;;6.60;;
55212;SDS011;41083;52.932;6.674;2023-02-15T08:34:20;15.88;;;7.85;;
55212;SDS011;41083;52.932;6.674;2023-02-15T08:36:46;17.92;;;7.55;;
55212;SDS011;41083;52.932;6.674;2023-02-15T08:39:12;16.73;;;7.60;;
55212;SDS011;41083;52.932;6.674;2023-02-15T08:41:41;17.20;;;7.78;;
55212;SDS011;41083;52.932;6.674;2023-02-15T08:44:07;17.17;;;7.53;;
55212;SDS011;41083;52.932;6.674;2023-02-15T08:46:36;15.68;;;6.63;;
55212;SDS011;41083;52.932;6.674;2023-02-15T08:49:03;13.05;;;7.20;;
55212;SDS011;41083;52.932;6.674;2023-02-15T08:51:30;19.67;;;8.02;;
55212;SDS011;41083;52.932;6.674;2023-02-15T08:53:58;16.67;;;7.60;;
55212;SDS011;41083;52.932;6.674;2023-02-15T08:56:26;19.30;;;7.07;;
55212;SDS011;41083;52.932;6.674;2023-02-15T08:58:54;20.45;;;8.43;;
55212;SDS011;41083;52.932;6.674;2023-02-15T09:01:21;17.52;;;8.05;;
55212;SDS011;41083;52.932;6.674;2023-02-15T09:03:49;18.15;;;7.13;;
55212;SDS011;41083;52.932;6.674;2023-02-15T09:06:19;21.08;;;7.55;;
55212;SDS011;41083;52.932;6.674;2023-02-15T09:08:45;15.85;;;7.47;;
55212;SDS011;41083;52.932;6.674;2023-02-15T09:11:13;20.35;;;8.05;;
55212;SDS011;41083;52.932;6.674;2023-02-15T09:13:47;15.93;;;7.85;;
55212;SDS011;41083;52.932;6.674;2023-02-15T09:16:17;23.17;;;9.05;;
55212;SDS011;41083;52.932;6.674;2023-02-15T09:18:43;27.88;;;9.15;;
55212;SDS011;41083;52.932;6.674;2023-02-15T09:21:10;21.65;;;10.13;;
55212;SDS011;41083;52.932;6.674;2023-02-15T09:23:40;16.52;;;7.68;;
55212;SDS011;41083;52.932;6.674;2023-02-15T09:26:08;19.85;;;8.07;;
55212;SDS011;41083;52.932;6.674;2023-02-15T09:28:36;24.02;;;9.48;;
55212;SDS011;41083;52.932;6.674;2023-02-15T09:31:06;20.88;;;8.85;;
55212;SDS011;41083;52.932;6.674;2023-02-15T09:33:42;21.00;;;9.05;;
55212;SDS011;41083;52.932;6.674;2023-02-15T09:39:16;23.63;;;8.23;;
55212;SDS011;41083;52.932;6.674;2023-02-15T09:50:06;20.50;;;9.13;;
55212;SDS011;41083;52.932;6.674;2023-02-15T09:53:17;17.95;;;8.57;;
55212;SDS011;41083;52.932;6.674;2023-02-15T09:55:57;22.95;;;9.98;;
55212;SDS011;41083;52.932;6.674;2023-02-15T09:58:44;20.48;;;9.55;;
55212;SDS011;41083;52.932;6.674;2023-02-15T10:09:55;19.98;;;9.32;;
55212;SDS011;41083;52.932;6.674;2023-02-15T10:12:32;30.00;;;10.90;;
55212;SDS011;41083;52.932;6.674;2023-02-15T10:26:33;20.40;;;9.73;;
55212;SDS011;41083;52.932;6.674;2023-02-15T10:35:03;29.83;;;10.25;;
55212;SDS011;41083;52.932;6.674;2023-02-15T10:37:44;26.52;;;9.93;;
55212;SDS011;41083;52.932;6.674;2023-02-15T10:43:37;24.67;;;10.50;;
55212;SDS011;41083;52.932;6.674;2023-02-15T10:48:39;27.13;;;10.95;;
55212;SDS011;41083;52.932;6.674;2023-02-15T10:51:21;32.80;;;10.77;;
55212;SDS011;41083;52.932;6.674;2023-02-15T10:54:29;22.65;;;10.75;;
55212;SDS011;41083;52.932;6.674;2023-02-15T11:02:55;22.50;;;9.90;;
55212;SDS011;41083;52.932;6.674;2023-02-15T11:08:04;30.48;;;11.75;;
55212;SDS011;41083;52.932;6.674;2023-02-15T11:10:44;24.08;;;11.45;;
55212;SDS011;41083;52.932;6.674;2023-02-15T11:13:17;23.35;;;11.00;;
55212;SDS011;41083;52.932;6.674;2023-02-15T11:15:55;33.47;;;10.77;;
55212;SDS011;41083;52.932;6.674;2023-02-15T11:21:37;22.15;;;10.57;;
55212;SDS011;41083;52.932;6.674;2023-02-15T11:24:13;24.73;;;10.50;;
55212;SDS011;41083;52.932;6.674;2023-02-15T11:26:48;20.48;;;9.43;;
55212;SDS011;41083;52.932;6.674;2023-02-15T11:29:34;22.15;;;9.40;;
55212;SDS011;41083;52.932;6.674;2023-02-15T11:32:20;24.25;;;9.65;;
55212;SDS011;41083;52.932;6.674;2023-02-15T11:34:53;21.08;;;9.70;;
55212;SDS011;41083;52.932;6.674;2023-02-15T11:37:45;24.77;;;10.77;;
55212;SDS011;41083;52.932;6.674;2023-02-15T11:40:33;25.73;;;9.93;;
55212;SDS011;41083;52.932;6.674;2023-02-15T11:43:10;24.20;;;10.52;;
55212;SDS011;41083;52.932;6.674;2023-02-15T11:45:51;23.13;;;10.25;;
55212;SDS011;41083;52.932;6.674;2023-02-15T11:48:17;26.05;;;10.35;;
55212;SDS011;41083;52.932;6.674;2023-02-15T11:50:43;21.40;;;9.82;;
55212;SDS011;41083;52.932;6.674;2023-02-15T11:53:16;29.13;;;11.30;;
55212;SDS011;41083;52.932;6.674;2023-02-15T11:55:46;26.88;;;11.80;;
55212;SDS011;41083;52.932;6.674;2023-02-15T12:01:15;23.50;;;10.20;;
55212;SDS011;41083;52.932;6.674;2023-02-15T12:03:46;21.50;;;10.18;;
55212;SDS011;41083;52.932;6.674;2023-02-15T12:06:35;26.90;;;11.50;;
55212;SDS011;41083;52.932;6.674;2023-02-15T12:09:18;28.65;;;11.07;;
55212;SDS011;41083;52.932;6.674;2023-02-15T12:11:45;26.95;;;11.35;;
55212;SDS011;41083;52.932;6.674;2023-02-15T12:14:11;27.83;;;11.90;;
55212;SDS011;41083;52.932;6.674;2023-02-15T12:16:42;22.42;;;9.55;;
55212;SDS011;41083;52.932;6.674;2023-02-15T12:22:00;19.50;;;9.18;;
55212;SDS011;41083;52.932;6.674;2023-02-15T12:24:36;27.48;;;10.05;;
55212;SDS011;41083;52.932;6.674;2023-02-15T12:27:15;23.52;;;10.52;;
55212;SDS011;41083;52.932;6.674;2023-02-15T12:29:54;23.50;;;10.07;;
55212;SDS011;41083;52.932;6.674;2023-02-15T12:32:34;27.17;;;11.15;;
55212;SDS011;41083;52.932;6.674;2023-02-15T12:37:34;28.42;;;10.48;;
55212;SDS011;41083;52.932;6.674;2023-02-15T12:40:02;23.98;;;10.50;;
55212;SDS011;41083;52.932;6.674;2023-02-15T12:42:47;21.40;;;9.77;;
55212;SDS011;41083;52.932;6.674;2023-02-15T12:45:22;27.35;;;10.27;;
55212;SDS011;41083;52.932;6.674;2023-02-15T12:50:47;23.77;;;9.57;;
55212;SDS011;41083;52.932;6.674;2023-02-15T12:58:31;23.98;;;9.75;;
55212;SDS011;41083;52.932;6.674;2023-02-15T13:01:08;27.90;;;9.52;;
55212;SDS011;41083;52.932;6.674;2023-02-15T13:06:45;20.52;;;10.18;;
55212;SDS011;41083;52.932;6.674;2023-02-15T13:09:14;24.10;;;9.30;;
55212;SDS011;41083;52.932;6.674;2023-02-15T13:11:43;23.40;;;10.15;;
55212;SDS011;41083;52.932;6.674;2023-02-15T13:16:48;24.23;;;9.88;;
55212;SDS011;41083;52.932;6.674;2023-02-15T13:19:16;25.67;;;9.75;;
55212;SDS011;41083;52.932;6.674;2023-02-15T13:21:54;24.50;;;10.07;;
55212;SDS011;41083;52.932;6.674;2023-02-15T13:24:22;22.85;;;8.98;;
55212;SDS011;41083;52.932;6.674;2023-02-15T13:26:50;21.30;;;8.65;;
55212;SDS011;41083;52.932;6.674;2023-02-15T13:29:22;27.13;;;9.85;;
55212;SDS011;41083;52.932;6.674;2023-02-15T13:31:53;21.90;;;8.63;;
55212;SDS011;41083;52.932;6.674;2023-02-15T13:34:22;21.00;;;9.25;;
55212;SDS011;41083;52.932;6.674;2023-02-15T13:36:51;18.35;;;8.52;;
55212;SDS011;41083;52.932;6.674;2023-02-15T13:42:26;23.05;;;8.65;;
55212;SDS011;41083;52.932;6.674;2023-02-15T13:59:41;18.27;;;7.97;;
55212;SDS011;41083;52.932;6.674;2023-02-15T14:16:18;20.45;;;8.73;;
55212;SDS011;41083;52.932;6.674;2023-02-15T14:18:55;23.38;;;9.25;;
55212;SDS011;41083;52.932;6.674;2023-02-15T14:21:34;19.60;;;8.20;;
55212;SDS011;41083;52.932;6.674;2023-02-15T14:24:16;19.77;;;8.38;;
55212;SDS011;41083;52.932;6.674;2023-02-15T14:30:02;22.67;;;8.95;;
55212;SDS011;41083;52.932;6.674;2023-02-15T14:32:42;18.60;;;8.68;;
55212;SDS011;41083;52.932;6.674;2023-02-15T14:35:13;24.40;;;10.15;;
55212;SDS011;41083;52.932;6.674;2023-02-15T14:37:50;22.70;;;9.30;;
55212;SDS011;41083;52.932;6.674;2023-02-15T14:46:03;21.38;;;9.32;;
55212;SDS011;41083;52.932;6.674;2023-02-15T14:48:55;17.35;;;7.80;;
55212;SDS011;41083;52.932;6.674;2023-02-15T14:56:45;20.20;;;8.38;;
55212;SDS011;41083;52.932;6.674;2023-02-15T15:02:25;17.63;;;8.18;;
55212;SDS011;41083;52.932;6.674;2023-02-15T15:07:24;20.55;;;8.60;;
55212;SDS011;41083;52.932;6.674;2023-02-15T15:20:47;24.48;;;8.95;;
55212;SDS011;41083;52.932;6.674;2023-02-15T15:42:31;18.52;;;7.97;;
55212;SDS011;41083;52.932;6.674;2023-02-15T15:50:13;22.92;;;10.27;;
55212;SDS011;41083;52.932;6.674;2023-02-15T15:52:55;20.08;;;8.45;;
55212;SDS011;41083;52.932;6.674;2023-02-15T15:55:23;23.05;;;9.45;;
55212;SDS011;41083;52.932;6.674;2023-02-15T15:57:51;19.80;;;7.78;;
55212;SDS011;41083;52.932;6.674;2023-02-15T16:03:16;16.75;;;7.22;;
55212;SDS011;41083;52.932;6.674;2023-02-15T16:05:47;22.90;;;7.95;;
55212;SDS011;41083;52.932;6.674;2023-02-15T16:08:25;21.95;;;9.38;;
55212;SDS011;41083;52.932;6.674;2023-02-15T16:10:56;22.48;;;7.88;;
55212;SDS011;41083;52.932;6.674;2023-02-15T16:13:23;16.83;;;8.25;;
55212;SDS011;41083;52.932;6.674;2023-02-15T16:15:50;25.20;;;8.57;;
55212;SDS011;41083;52.932;6.674;2023-02-15T16:18:18;22.10;;;9.57;;
55212;SDS011;41083;52.932;6.674;2023-02-15T16:20:57;21.63;;;8.02;;
55212;SDS011;41083;52.932;6.674;2023-02-15T16:28:48;19.73;;;7.35;;
55212;SDS011;41083;52.932;6.674;2023-02-15T16:31:15;18.38;;;7.30;;
55212;SDS011;41083;52.932;6.674;2023-02-15T16:33:41;17.60;;;8.05;;
55212;SDS011;41083;52.932;6.674;2023-02-15T16:36:10;22.77;;;9.10;;
55212;SDS011;41083;52.932;6.674;2023-02-15T16:41:12;18.40;;;8.18;;
55212;SDS011;41083;52.932;6.674;2023-02-15T16:44:02;19.90;;;8.07;;
55212;SDS011;41083;52.932;6.674;2023-02-15T16:46:32;16.88;;;8.07;;
55212;SDS011;41083;52.932;6.674;2023-02-15T16:49:04;19.50;;;7.40;;
55212;SDS011;41083;52.932;6.674;2023-02-15T16:51:39;18.88;;;6.97;;
55212;SDS011;41083;52.932;6.674;2023-02-15T16:54:13;19.42;;;7.57;;
55212;SDS011;41083;52.932;6.674;2023-02-15T16:56:44;17.65;;;7.53;;
55212;SDS011;41083;52.932;6.674;2023-02-15T16:59:45;18.77;;;6.88;;
55212;SDS011;41083;52.932;6.674;2023-02-15T17:02:18;17.77;;;7.43;;
55212;SDS011;41083;52.932;6.674;2023-02-15T17:10:45;18.42;;;7.25;;
55212;SDS011;41083;52.932;6.674;2023-02-15T17:13:24;20.48;;;7.57;;
55212;SDS011;41083;52.932;6.674;2023-02-15T17:18:29;17.77;;;7.37;;
55212;SDS011;41083;52.932;6.674;2023-02-15T17:21:00;19.80;;;8.10;;
55212;SDS011;41083;52.932;6.674;2023-02-15T17:23:36;16.02;;;7.43;;
55212;SDS011;41083;52.932;6.674;2023-02-15T17:26:14;21.98;;;8.73;;
55212;SDS011;41083;52.932;6.674;2023-02-15T17:28:56;20.05;;;7.82;;
55212;SDS011;41083;52.932;6.674;2023-02-15T17:31:24;20.33;;;8.57;;
55212;SDS011;41083;52.932;6.674;2023-02-15T17:33:56;22.27;;;7.50;;
55212;SDS011;41083;52.932;6.674;2023-02-15T17:36:24;19.42;;;7.53;;
55212;SDS011;41083;52.932;6.674;2023-02-15T17:41:32;16.80;;;7.05;;
55212;SDS011;41083;52.932;6.674;2023-02-15T17:44:00;18.10;;;7.97;;
55212;SDS011;41083;52.932;6.674;2023-02-15T17:46:26;15.95;;;6.65;;
55212;SDS011;41083;52.932;6.674;2023-02-15T17:48:58;16.23;;;7.65;;
55212;SDS011;41083;52.932;6.674;2023-02-15T17:51:24;19.40;;;7.50;;
55212;SDS011;41083;52.932;6.674;2023-02-15T17:53:50;17.95;;;7.90;;
55212;SDS011;41083;52.932;6.674;2023-02-15T17:56:36;18.05;;;7.57;;
55212;SDS011;41083;52.932;6.674;2023-02-15T17:59:02;24.63;;;9.55;;
55212;SDS011;41083;52.932;6.674;2023-02-15T18:01:31;16.85;;;7.65;;
55212;SDS011;41083;52.932;6.674;2023-02-15T18:04:17;16.38;;;7.90;;
55212;SDS011;41083;52.932;6.674;2023-02-15T18:07:02;19.20;;;8.55;;
55212;SDS011;41083;52.932;6.674;2023-02-15T18:09:47;20.33;;;8.38;;
55212;SDS011;41083;52.932;6.674;2023-02-15T18:12:33;17.08;;;7.18;;
55212;SDS011;41083;52.932;6.674;2023-02-15T18:15:02;17.20;;;7.78;;
55212;SDS011;41083;52.932;6.674;2023-02-15T18:17:31;17.60;;;7.68;;
55212;SDS011;41083;52.932;6.674;2023-02-15T18:19:58;23.23;;;7.78;;
55212;SDS011;41083;52.932;6.674;2023-02-15T18:22:29;18.85;;;8.82;;